Jaca, Aragón

latitud = 42° 34' 44''N | longitud = 000° 32' 49''W
823 metros sobre el nivel del mar | datos mensuales

Fecha, hora, temperatura, viento dirección y velocidad, humedad y presión.

  • 21-01-2018 02:00:00 | 8.10°C | Noroeste |20.00 km/h | 81.00% | 0.00 hPa
  • 21-01-2018 01:00:00 | 8.70°C | Noroeste |16.00 km/h | 72.00% | 0.00 hPa
  • 21-01-2018 00:00:00 | 9.30°C | Noroeste |18.00 km/h | 70.00% | 0.00 hPa
  • 20-01-2018 23:00:00 | 10.10°C | Norte |25.00 km/h | 63.00% | 0.00 hPa
  • 20-01-2018 22:00:00 | 10.00°C | Norte |23.00 km/h | 65.00% | 0.00 hPa
  • 20-01-2018 21:00:00 | 7.10°C | Noroeste |14.00 km/h | 98.00% | 0.00 hPa
  • 20-01-2018 20:00:00 | 6.70°C | Noroeste |13.00 km/h | 98.00% | 0.00 hPa
  • 20-01-2018 19:00:00 | 6.60°C | Noroeste |14.00 km/h | 96.00% | 0.00 hPa
  • 20-01-2018 18:00:00 | 6.70°C | Noroeste |11.00 km/h | 88.00% | 0.00 hPa
  • 20-01-2018 17:00:00 | 7.90°C | Oeste |12.00 km/h | 78.00% | 0.00 hPa
  • 20-01-2018 16:00:00 | 7.90°C | Noroeste |13.00 km/h | 75.00% | 0.00 hPa
  • 20-01-2018 15:00:00 | 8.60°C | Noroeste |21.00 km/h | 67.00% | 0.00 hPa
  • 20-01-2018 14:00:00 | 8.70°C | Noroeste |23.00 km/h | 57.00% | 0.00 hPa
  • 20-01-2018 13:00:00 | 7.80°C | Noroeste |15.00 km/h | 63.00% | 0.00 hPa
  • 20-01-2018 12:00:00 | 6.20°C | Noroeste |16.00 km/h | 70.00% | 0.00 hPa
  • 20-01-2018 11:00:00 | 5.40°C | Noroeste |9.00 km/h | 76.00% | 0.00 hPa
  • 20-01-2018 10:00:00 | 3.60°C | Noroeste |6.00 km/h | 87.00% | 0.00 hPa
  • 20-01-2018 09:00:00 | 2.20°C | Noroeste |3.00 km/h | 87.00% | 0.00 hPa
  • 20-01-2018 08:00:00 | 2.10°C | Sur |5.00 km/h | 86.00% | 0.00 hPa
  • 20-01-2018 07:00:00 | 1.80°C | Sur |3.00 km/h | 87.00% | 0.00 hPa
  • 20-01-2018 06:00:00 | 1.60°C | Sudoeste |8.00 km/h | 91.00% | 0.00 hPa
  • 20-01-2018 05:00:00 | 1.30°C | Oeste |3.00 km/h | 89.00% | 0.00 hPa
  • 20-01-2018 04:00:00 | 1.00°C | Noroeste |5.00 km/h | 91.00% | 0.00 hPa
  • 20-01-2018 03:00:00 | 1.60°C | Oeste |7.00 km/h | 91.00% | 0.00 hPa